Map

Track Data

SID SEASON NUMBER BASIN SUBBASIN NAME ISO_TIME NATURE LAT LON WMO_WIND WMO_PRES WMO_AGENCY TRACK_TYPE DIST2LAND LANDFALL IFLAG USA_AGENCY USA_ATCF_ID USA_LAT USA_LON USA_RECORD USA_STATUS USA_WIND USA_PRES USA_SSHS USA_R34_NE USA_R34_SE USA_R34_SW USA_R34_NW USA_R50_NE USA_R50_SE USA_R50_SW USA_R50_NW USA_R64_NE USA_R64_SE USA_R64_SW USA_R64_NW USA_POCI USA_ROCI USA_RMW USA_EYE TOKYO_LAT TOKYO_LON TOKYO_GRADE TOKYO_WIND TOKYO_PRES TOKYO_R50_DIR TOKYO_R50_LONG TOKYO_R50_SHORT TOKYO_R30_DIR TOKYO_R30_LONG TOKYO_R30_SHORT TOKYO_LAND CMA_LAT CMA_LON CMA_CAT CMA_WIND CMA_PRES HKO_LAT HKO_LON HKO_CAT HKO_WIND HKO_PRES NEWDELHI_LAT NEWDELHI_LON NEWDELHI_GRADE NEWDELHI_WIND NEWDELHI_PRES NEWDELHI_CI NEWDELHI_DP NEWDELHI_POCI REUNION_LAT REUNION_LON REUNION_TYPE REUNION_WIND REUNION_PRES REUNION_TNUM REUNION_CI REUNION_RMW REUNION_R34_NE REUNION_R34_SE REUNION_R34_SW REUNION_R34_NW REUNION_R50_NE REUNION_R50_SE REUNION_R50_SW REUNION_R50_NW REUNION_R64_NE REUNION_R64_SE REUNION_R64_SW REUNION_R64_NW BOM_LAT BOM_LON BOM_TYPE BOM_WIND BOM_PRES BOM_TNUM BOM_CI BOM_RMW BOM_R34_NE BOM_R34_SE BOM_R34_SW BOM_R34_NW BOM_R50_NE BOM_R50_SE BOM_R50_SW BOM_R50_NW BOM_R64_NE BOM_R64_SE BOM_R64_SW BOM_R64_NW BOM_ROCI BOM_POCI BOM_EYE BOM_POS_METHOD BOM_PRES_METHOD NADI_LAT NADI_LON NADI_CAT NADI_WIND NADI_PRES WELLINGTON_LAT WELLINGTON_LON WELLINGTON_WIND WELLINGTON_PRES DS824_LAT DS824_LON DS824_STAGE DS824_WIND DS824_PRES TD9636_LAT TD9636_LON TD9636_STAGE TD9636_WIND TD9636_PRES TD9635_LAT TD9635_LON TD9635_WIND TD9635_PRES TD9635_ROCI NEUMANN_LAT NEUMANN_LON NEUMANN_CLASS NEUMANN_WIND NEUMANN_PRES MLC_LAT MLC_LON MLC_CLASS MLC_WIND MLC_PRES USA_GUST BOM_GUST BOM_GUST_PER REUNION_GUST REUNION_GUST_PER USA_SEAHGT USA_SEARAD_NE USA_SEARAD_SE USA_SEARAD_SW USA_SEARAD_NW STORM_SPEED STORM_DIR
1853251N24274 1853 9 NA GM NOT_NAMED 1853-09-07 12:00:00 TS 23.8000 -86.0000 main 233 233 _____________O -1 23.8000 -86.0000 TS 45 6 335
1853251N24274 1853 9 NA GM NOT_NAMED 1853-09-07 15:00:00 TS 24.0600 -86.1374 main 263 263 _____________P -1 24.0600 -86.1374 TS 45 6 331
1853251N24274 1853 9 NA GM NOT_NAMED 1853-09-07 18:00:00 TS 24.3000 -86.3000 main 293 293 _____________O -1 24.3000 -86.3000 TS 45 6 324
1853251N24274 1853 9 NA GM NOT_NAMED 1853-09-07 21:00:00 TS 24.5075 -86.5000 main 323 323 _____________P -1 24.5075 -86.5000 TS 45 5 318
1853251N24274 1853 9 NA GM NOT_NAMED 1853-09-08 00:00:00 TS 24.7000 -86.7000 main 353 353 _____________O -1 24.7000 -86.7000 TS 45 5 321
1853251N24274 1853 9 NA GM NOT_NAMED 1853-09-08 03:00:00 TS 24.9000 -86.8576 main 380 380 _____________P -1 24.9000 -86.8576 TS 45 5 326
1853251N24274 1853 9 NA GM NOT_NAMED 1853-09-08 06:00:00 TS 25.1000 -87.0000 main 402 402 _____________O -1 25.1000 -87.0000 TS 45 5 325
1853251N24274 1853 9 NA GM NOT_NAMED 1853-09-08 09:00:00 TS 25.2925 -87.1575 main 424 424 _____________P -1 25.2925 -87.1575 TS 45 5 326
1853251N24274 1853 9 NA GM NOT_NAMED 1853-09-08 12:00:00 TS 25.5000 -87.3000 main 429 404 _____________O -1 25.5000 -87.3000 TS 45 5 333
1853251N24274 1853 9 NA GM NOT_NAMED 1853-09-08 15:00:00 TS 25.7500 -87.4075 main 404 370 _____________P -1 25.7500 -87.4075 TS 45 5 340
1853251N24274 1853 9 NA GM NOT_NAMED 1853-09-08 18:00:00 TS 26.0000 -87.5000 main 370 345 _____________O -1 26.0000 -87.5000 TS 45 5 339
1853251N24274 1853 9 NA GM NOT_NAMED 1853-09-08 21:00:00 TS 26.2000 -87.6001 main 345 321 _____________P -1 26.2000 -87.6001 TS 42 4 336
1853251N24274 1853 9 NA GM NOT_NAMED 1853-09-09 00:00:00 TS 26.4000 -87.7000 main 321 296 _____________O -1 26.4000 -87.7000 TS 40 5 338
1853251N24274 1853 9 NA GM NOT_NAMED 1853-09-09 03:00:00 TS 26.6500 -87.8075 main 286 262 _____________P -1 26.6500 -87.8075 TS 40 5 340
1853251N24274 1853 9 NA GM NOT_NAMED 1853-09-09 06:00:00 TS 26.9000 -87.9000 main 262 237 _____________O -1 26.9000 -87.9000 TS 40 5 342
1853251N24274 1853 9 NA GM NOT_NAMED 1853-09-09 09:00:00 TS 27.1075 -87.9650 main 237 218 _____________P -1 27.1075 -87.9650 TS 40 4 348
1853251N24274 1853 9 NA GM NOT_NAMED 1853-09-09 12:00:00 TS 27.3000 -88.0000 main 218 199 _____________O -1 27.3000 -88.0000 TS 40 4 353
1853251N24274 1853 9 NA GM NOT_NAMED 1853-09-09 15:00:00 TS 27.4925 -88.0075 main 199 180 _____________P -1 27.4925 -88.0075 TS 40 4 0
1853251N24274 1853 9 NA GM NOT_NAMED 1853-09-09 18:00:00 TS 27.7000 -88.0000 main 180 163 _____________O -1 27.7000 -88.0000 TS 40 5 357
1853251N24274 1853 9 NA GM NOT_NAMED 1853-09-09 21:00:00 TS 27.9500 -88.0149 main 163 139 _____________P -1 27.9500 -88.0149 TS 37 5 2
1853251N24274 1853 9 NA GM NOT_NAMED 1853-09-10 00:00:00 TS 28.2000 -88.0000 main 139 132 _____________O -1 28.2000 -88.0000 TS 35 5 12
1853251N24274 1853 9 NA GM NOT_NAMED 1853-09-10 03:00:00 TS 28.4000 -87.9076 main 132 126 _____________P -1 28.4000 -87.9076 TS 35 4 24
1853251N24274 1853 9 NA GM NOT_NAMED 1853-09-10 06:00:00 TS 28.6000 -87.8000 main 129 124 _____________O -1 28.6000 -87.8000 TS 35 5 20
1853251N24274 1853 9 NA GM NOT_NAMED 1853-09-10 09:00:00 TS 28.8275 -87.7350 main 130 126 _____________P -1 28.8275 -87.7350 TS 35 5 10
1853251N24274 1853 9 NA GM NOT_NAMED 1853-09-10 12:00:00 TS 29.1000 -87.7000 main 126 93 _____________O -1 29.1000 -87.7000 TS 35 6 1
1853251N24274 1853 9 NA GM NOT_NAMED 1853-09-10 15:00:00 TS 29.4274 -87.7295 main 93 53 _____________P -1 29.4274 -87.7295 TS 35 7 0
1853251N24274 1853 9 NA GM NOT_NAMED 1853-09-10 18:00:00 TS 29.8000 -87.7000 main 53 11 _____________O -1 29.8000 -87.7000 TS 35 8 14
1853251N24274 1853 9 NA GM NOT_NAMED 1853-09-10 21:00:00 TS 30.2000 -87.5026 main 11 0 _____________P -1 30.2000 -87.5026 TS 35 9 28
1853251N24274 1853 9 NA NA NOT_NAMED 1853-09-11 00:00:00 TS 30.6000 -87.2000 main 0 0 _____________O -1 30.6000 -87.2000 TS 35 9 32
1853251N24274 1853 9 NA NA NOT_NAMED 1853-09-11 03:00:00 TS 30.9562 -86.9612 main 0 0 _____________P -1 30.9562 -86.9612 TS 32 9 41
1853251N24274 1853 9 NA NA NOT_NAMED 1853-09-11 06:00:00 TS 31.3000 -86.5000 main 0 0 _____________O -1 31.3000 -86.5000 TD 30 13 59
1853251N24274 1853 9 NA NA NOT_NAMED 1853-09-11 09:00:00 TS 31.6506 -85.6275 main 0 0 _____________P -1 31.6506 -85.6275 TD 30 18 68
1853251N24274 1853 9 NA NA NOT_NAMED 1853-09-11 12:00:00 TS 32.0000 -84.5000 main 0 _____________O -1 32.0000 -84.5000 TD 30 20 70

About IBTrACS Database

This database is a web-friendly format of International Best Track Archive for Climate Stewardship (IBTrACS), a global best track data archive curated by NOAA dating back to 1842.

Updated: 2021-11-26